Time;durP1;ratioP1;P1;durP2;ratioP2;P2;SDS_P1;SDS_P2;PMS_P1;PMS_P2;Temp;Humidity;BMP_temperature;BMP_pressure;BME280_temperature;BME280_humidity;BME280_pressure;Samples;Min_cycle;Max_cycle;Signal;HPM_P1;HPM_P2
2021/12/17 00:04:29;;;;;;;32.58;19.90;;;;;;;4.43;81.55;98708.09;4937129;28;20050;-75
2021/12/17 00:06:58;;;;;;;32.78;20.23;;;;;;;4.44;81.76;98705.44;4976082;28;20484;-77
2021/12/17 00:09:25;;;;;;;28.98;19.88;;;;;;;4.44;81.23;98691.66;4975971;28;20061;-77
2021/12/17 00:11:53;;;;;;;31.83;20.77;;;;;;;4.44;81.46;98697.69;4976285;28;20057;-76
2021/12/17 00:14:26;;;;;;;29.85;20.38;;;;;;;4.47;82.00;98676.81;4976013;28;20066;-77
2021/12/17 00:16:54;;;;;;;36.88;22.17;;;;;;;4.45;80.73;98670.91;4975874;28;20070;-79
2021/12/17 00:19:34;;;;;;;31.08;20.73;;;;;;;4.42;81.13;98673.69;4975798;28;20058;-76
2021/12/17 00:44:20;;;;;;;26.20;17.92;;;;;;;4.52;81.75;98664.44;4976931;28;20046;-77
2021/12/17 00:49:38;;;;;;;36.92;24.02;;;;;;;4.50;80.25;98691.28;4975479;28;20050;-77
2021/12/17 00:52:06;;;;;;;40.20;25.35;;;;;;;4.48;80.92;98693.13;4975744;28;20058;-77
2021/12/17 00:54:38;;;;;;;39.67;25.83;;;;;;;4.49;81.59;98695.66;4975770;28;20050;-77
2021/12/17 00:57:13;;;;;;;40.53;25.73;;;;;;;4.52;82.22;98695.44;4975418;28;20126;-77
2021/12/17 00:59:43;;;;;;;39.28;24.85;;;;;;;4.54;82.69;98697.94;4975487;28;20284;-76
2021/12/17 01:02:13;;;;;;;42.05;24.60;;;;;;;4.54;81.07;98701.34;4975312;28;20051;-77
2021/12/17 01:04:43;;;;;;;38.63;22.85;;;;;;;4.56;81.78;98700.44;4975014;28;20046;-78
2021/12/17 01:07:11;;;;;;;34.20;21.70;;;;;;;4.60;82.03;98691.59;4974609;28;20069;-76
2021/12/17 01:09:41;;;;;;;35.45;20.70;;;;;;;4.63;81.75;98686.22;4974921;28;20050;-77
2021/12/17 01:12:10;;;;;;;34.75;21.58;;;;;;;4.64;82.12;98682.72;4973810;28;20139;-79
2021/12/17 01:14:38;;;;;;;31.45;20.52;;;;;;;4.64;81.65;98674.97;4975029;28;20406;-77
2021/12/17 01:17:06;;;;;;;29.58;19.45;;;;;;;4.66;81.14;98683.47;4974454;28;20137;-76
2021/12/17 01:20:14;;;;;;;29.60;18.75;;;;;;;4.61;80.78;98686.31;4974678;28;20047;-77
2021/12/17 01:22:48;;;;;;;30.05;18.73;;;;;;;4.60;80.54;98689.00;4974575;28;20055;-77
2021/12/17 01:25:21;;;;;;;31.88;20.50;;;;;;;4.56;80.79;98690.13;4974898;28;20061;-77
2021/12/17 01:36:20;;;;;;;32.38;20.10;;;;;;;4.58;81.44;98675.34;4972151;28;20062;-76
2021/12/17 01:42:04;;;;;;;30.02;18.25;;;;;;;4.50;81.18;98668.91;4933792;29;20051;-76
2021/12/17 01:44:32;;;;;;;27.75;18.23;;;;;;;4.54;81.35;98670.34;4969803;28;20531;-76
2021/12/17 01:46:59;;;;;;;31.00;18.45;;;;;;;4.58;81.25;98672.75;4973781;28;20066;-77
2021/12/17 02:00:38;;;;;;;24.73;17.50;;;;;;;4.72;81.84;98644.28;4973968;28;20428;-77
2021/12/17 02:03:07;;;;;;;28.05;17.30;;;;;;;4.71;80.80;98655.56;4973960;28;20130;-77
2021/12/17 02:05:36;;;;;;;29.15;17.35;;;;;;;4.68;80.74;98664.34;4972603;28;20059;-76
2021/12/17 02:08:04;;;;;;;26.50;17.23;;;;;;;4.68;80.69;98664.34;4973473;28;20054;-76
2021/12/17 02:22:05;;;;;;;9.57;6.38;;;;;;;4.90;82.12;98650.94;4950061;28;20047;-77
2021/12/17 02:30:36;;;;;;;11.95;7.90;;;;;;;5.00;81.97;98640.00;4928081;28;20050;-77
2021/12/17 02:33:04;;;;;;;9.35;6.75;;;;;;;5.02;81.83;98640.75;4972382;28;20051;-76
2021/12/17 02:35:37;;;;;;;9.40;6.45;;;;;;;5.03;81.93;98632.88;4973114;28;20053;-77
2021/12/17 02:38:08;;;;;;;8.48;5.90;;;;;;;5.06;81.77;98631.84;4973073;28;20524;-77
2021/12/17 02:46:06;;;;;;;8.18;6.20;;;;;;;5.08;81.17;98628.25;4971949;28;20054;-77
2021/12/17 02:48:34;;;;;;;9.65;5.82;;;;;;;5.08;81.32;98630.84;4971518;28;20055;-77
2021/12/17 02:51:02;;;;;;;9.90;6.32;;;;;;;5.08;80.91;98622.25;4971617;28;20051;-77
2021/12/17 02:53:31;;;;;;;9.57;6.65;;;;;;;5.09;80.98;98627.31;4971651;28;20054;-76
2021/12/17 02:56:01;;;;;;;8.55;5.82;;;;;;;5.10;81.25;98631.56;4971054;28;20125;-77
2021/12/17 02:58:31;;;;;;;9.10;6.15;;;;;;;5.11;80.73;98629.81;4971333;28;20470;-76
2021/12/17 03:01:01;;;;;;;10.65;6.22;;;;;;;5.12;80.93;98627.13;4973008;28;20065;-77
2021/12/17 03:03:32;;;;;;;9.15;6.53;;;;;;;5.14;80.76;98616.69;4973226;28;20347;-77
2021/12/17 03:06:02;;;;;;;8.82;6.40;;;;;;;5.17;80.71;98624.25;4973264;28;20051;-76
2021/12/17 03:08:31;;;;;;;8.60;5.93;;;;;;;5.18;80.37;98625.06;4973200;28;20051;-77
2021/12/17 03:11:00;;;;;;;8.52;6.15;;;;;;;5.20;80.87;98623.22;4973381;28;20050;-76
2021/12/17 03:13:31;;;;;;;6.47;5.18;;;;;;;5.21;80.39;98630.06;4973264;28;20055;-76
2021/12/17 03:16:03;;;;;;;7.50;5.18;;;;;;;5.21;80.11;98617.94;4973113;28;20062;-77
2021/12/17 03:18:57;;;;;;;6.18;4.53;;;;;;;5.22;79.95;98622.19;4973928;28;20058;-77
2021/12/17 03:24:11;;;;;;;6.03;4.80;;;;;;;5.20;79.61;98618.03;4993269;28;20043;-76
2021/12/17 03:26:39;;;;;;;7.85;5.03;;;;;;;5.21;79.78;98614.53;4992423;28;20428;-78
2021/12/17 03:29:09;;;;;;;7.05;5.18;;;;;;;5.24;79.41;98616.91;4984629;28;20050;-77
2021/12/17 03:31:36;;;;;;;8.02;5.65;;;;;;;5.26;79.42;98613.31;4977663;28;20460;-77
2021/12/17 03:36:57;;;;;;;8.88;6.05;;;;;;;5.32;78.91;98628.44;4973494;28;20077;-77
2021/12/17 03:39:27;;;;;;;7.40;5.63;;;;;;;5.34;79.08;98629.16;4978034;28;20059;-78
2021/12/17 03:41:56;;;;;;;7.38;5.47;;;;;;;5.36;79.25;98629.91;4978158;28;20054;-77
2021/12/17 03:44:23;;;;;;;7.35;4.95;;;;;;;5.41;79.30;98634.78;4977997;28;20043;-77
2021/12/17 03:46:52;;;;;;;6.82;5.30;;;;;;;5.42;79.14;98626.06;4976454;28;20058;-77
2021/12/17 03:49:22;;;;;;;7.18;5.28;;;;;;;5.45;78.78;98622.47;4976300;28;20066;-76
2021/12/17 03:51:53;;;;;;;6.65;4.95;;;;;;;5.44;78.24;98620.81;4976663;28;20058;-77
2021/12/17 03:54:21;;;;;;;6.70;5.32;;;;;;;5.45;77.78;98606.94;4978840;28;20053;-77
2021/12/17 03:56:52;;;;;;;6.43;5.38;;;;;;;5.44;77.27;98610.44;4976968;28;20076;-78
2021/12/17 03:59:19;;;;;;;6.25;4.55;;;;;;;5.44;77.45;98611.28;4977042;28;20338;-78
2021/12/17 04:01:47;;;;;;;6.15;4.10;;;;;;;5.46;77.38;98611.19;4976646;28;20074;-77
2021/12/17 04:04:14;;;;;;;5.35;4.15;;;;;;;5.46;77.16;98608.59;4976562;28;20057;-77
2021/12/17 04:06:42;;;;;;;6.60;4.63;;;;;;;5.43;76.83;98599.28;4976163;28;20050;-77
2021/12/17 04:09:10;;;;;;;5.70;4.22;;;;;;;5.41;76.59;98605.47;4975844;28;20058;-76
2021/12/17 04:11:37;;;;;;;5.97;4.57;;;;;;;5.35;76.51;98604.94;4976570;28;20050;-76
2021/12/17 04:14:06;;;;;;;6.75;4.40;;;;;;;5.31;76.25;98605.22;4976174;28;20051;-77
2021/12/17 04:16:35;;;;;;;6.25;4.63;;;;;;;5.29;76.51;98597.59;4975912;28;20055;-77
2021/12/17 04:19:04;;;;;;;6.10;4.82;;;;;;;5.31;76.59;98600.91;4975736;28;20074;-76
2021/12/17 04:21:31;;;;;;;7.78;5.60;;;;;;;5.28;76.27;98601.09;4975935;28;20051;-77
2021/12/17 04:23:59;;;;;;;7.15;5.40;;;;;;;5.29;77.17;98595.00;4976076;28;20055;-77
2021/12/17 04:26:27;;;;;;;6.75;5.50;;;;;;;5.32;77.08;98596.56;4975619;28;20058;-77
2021/12/17 04:28:55;;;;;;;6.25;5.22;;;;;;;5.30;76.43;98598.41;4975942;28;20051;-76
2021/12/17 04:31:27;;;;;;;6.57;5.38;;;;;;;5.31;76.31;98594.88;4976187;28;20058;-77
2021/12/17 04:33:56;;;;;;;7.60;5.53;;;;;;;5.32;76.37;98601.72;4976095;28;20058;-77
2021/12/17 04:36:28;;;;;;;6.43;4.60;;;;;;;5.34;76.06;98594.72;4975457;28;20059;-77
2021/12/17 04:38:56;;;;;;;7.37;5.40;;;;;;;5.34;76.72;98597.28;4975657;28;20050;-76
2021/12/17 04:41:43;;;;;;;6.82;5.68;;;;;;;5.34;76.44;98600.69;4975624;28;20529;-77
2021/12/17 04:44:15;;;;;;;7.13;5.30;;;;;;;5.39;77.44;98597.81;4975467;28;20066;-77
2021/12/17 04:46:49;;;;;;;7.38;5.40;;;;;;;5.42;76.71;98589.84;4975127;28;20058;-77
2021/12/17 04:57:35;;;;;;;5.40;4.75;;;;;;;5.23;75.85;98590.22;4979543;28;20464;-79
2021/12/17 05:00:07;;;;;;;5.78;4.50;;;;;;;5.22;75.61;98593.72;4979573;28;20535;-78
2021/12/17 05:02:41;;;;;;;8.02;5.88;;;;;;;5.20;75.38;98594.75;4978987;28;20049;-79
2021/12/17 05:05:10;;;;;;;8.00;6.32;;;;;;;5.16;76.11;98591.56;4979326;28;20074;-79
2021/12/17 05:07:42;;;;;;;9.13;6.50;;;;;;;5.15;75.95;98587.28;4979381;28;20051;-79
2021/12/17 05:10:18;;;;;;;8.30;6.25;;;;;;;5.17;76.30;98593.19;4979548;28;20051;-80
2021/12/17 05:18:23;;;;;;;8.80;6.93;;;;;;;5.21;76.24;98567.97;4979231;28;20528;-79
2021/12/17 05:20:55;;;;;;;8.35;6.53;;;;;;;5.23;76.41;98581.63;4979755;28;20429;-80
2021/12/17 05:23:28;;;;;;;7.30;5.93;;;;;;;5.21;76.04;98573.16;4979261;28;20053;-78
2021/12/17 05:25:56;;;;;;;8.13;6.80;;;;;;;5.19;76.04;98581.00;4977991;28;20050;-80
2021/12/17 05:28:23;;;;;;;8.80;6.82;;;;;;;5.18;75.94;98589.66;4978257;28;20556;-78
2021/12/17 05:30:51;;;;;;;7.95;6.47;;;;;;;5.17;75.98;98598.38;4978988;28;20133;-79
2021/12/17 05:33:22;;;;;;;8.82;6.55;;;;;;;5.18;76.06;98607.78;4979204;28;20507;-78
2021/12/17 05:35:51;;;;;;;18.67;10.85;;;;;;;5.20;76.42;98618.88;4978820;28;20468;-79
2021/12/17 05:38:20;;;;;;;14.38;9.52;;;;;;;5.23;76.14;98621.28;4978480;28;20053;-81
2021/12/17 05:40:48;;;;;;;15.13;8.95;;;;;;;5.27;76.70;98625.31;4979049;28;20050;-78
2021/12/17 05:43:17;;;;;;;8.07;6.18;;;;;;;5.35;76.79;98624.81;4979146;28;20505;-77
2021/12/17 05:45:52;;;;;;;8.15;5.90;;;;;;;5.39;76.28;98618.50;4978581;28;20518;-78
2021/12/17 05:48:22;;;;;;;7.07;5.78;;;;;;;5.44;75.60;98629.38;4978944;28;20058;-79
2021/12/17 05:50:52;;;;;;;6.85;5.65;;;;;;;5.44;74.86;98631.16;4978665;28;20114;-78
2021/12/17 05:53:20;;;;;;;6.68;5.20;;;;;;;5.37;74.92;98631.53;4979011;28;20051;-78
2021/12/17 05:55:48;;;;;;;8.25;6.63;;;;;;;5.32;74.87;98631.03;4978778;28;20047;-78
2021/12/17 05:58:16;;;;;;;8.48;5.80;;;;;;;5.29;75.28;98620.03;4977575;28;20046;-78
2021/12/17 06:00:44;;;;;;;6.13;5.15;;;;;;;5.25;74.75;98616.84;4979013;28;20569;-78
2021/12/17 06:03:13;;;;;;;6.53;4.70;;;;;;;5.23;74.87;98629.03;4978169;28;20417;-78
2021/12/17 06:05:41;;;;;;;6.25;5.10;;;;;;;5.19;75.29;98624.97;4977473;28;20046;-78
2021/12/17 06:08:09;;;;;;;6.63;5.65;;;;;;;5.19;75.29;98616.41;4978307;28;20519;-77
2021/12/17 06:10:37;;;;;;;6.07;4.90;;;;;;;5.21;75.90;98620.53;4978223;28;20532;-78
2021/12/17 06:13:05;;;;;;;6.93;5.63;;;;;;;5.27;76.80;98621.88;4978999;28;20631;-80
2021/12/17 06:15:32;;;;;;;6.00;5.40;;;;;;;5.29;76.45;98618.28;4977146;28;20051;-75
2021/12/17 06:18:00;;;;;;;6.65;5.63;;;;;;;5.28;76.22;98620.97;4974111;28;20062;-78
2021/12/17 06:20:27;;;;;;;5.70;4.75;;;;;;;5.24;75.43;98624.69;4974756;28;20428;-76
2021/12/17 06:22:56;;;;;;;7.18;5.15;;;;;;;5.19;75.06;98627.56;4974737;28;20050;-75
2021/12/17 06:25:24;;;;;;;6.72;5.68;;;;;;;5.15;75.09;98631.28;4973920;28;20054;-74
2021/12/17 06:27:55;;;;;;;8.73;5.70;;;;;;;5.11;74.79;98640.97;4973740;28;20073;-76
2021/12/17 06:30:23;;;;;;;6.93;5.47;;;;;;;5.10;75.20;98638.50;4974053;28;20086;-77
2021/12/17 06:32:51;;;;;;;5.20;4.60;;;;;;;5.09;75.53;98642.81;4974251;28;20062;-76
2021/12/17 06:35:19;;;;;;;7.55;6.25;;;;;;;5.10;75.59;98644.50;4975604;28;20078;-78
2021/12/17 06:37:46;;;;;;;8.15;6.55;;;;;;;5.08;75.16;98637.78;4975143;28;20051;-79
2021/12/17 06:40:15;;;;;;;12.10;8.25;;;;;;;5.04;75.03;98644.06;4975633;28;20061;-78
2021/12/17 06:42:44;;;;;;;11.63;8.60;;;;;;;4.99;75.05;98640.94;4975287;28;20057;-78
2021/12/17 06:45:20;;;;;;;10.93;8.27;;;;;;;4.95;74.93;98633.34;4979109;28;20051;-77
2021/12/17 06:47:57;;;;;;;14.00;9.35;;;;;;;4.90;74.73;98642.34;4973691;28;20555;-75
2021/12/17 06:56:47;;;;;;;13.27;9.63;;;;;;;4.77;75.46;98644.88;4974264;28;20057;-78
2021/12/17 06:59:10;;;;;;;12.63;9.38;;;;;;;4.71;75.36;98633.13;4970332;28;20058;-75
2021/12/17 07:07:57;;;;;;;14.25;9.55;;;;;;;4.51;75.50;98644.69;4971223;28;20050;-77
2021/12/17 07:10:16;;;;;;;12.98;9.43;;;;;;;4.47;75.61;98655.31;4975078;28;20062;-77
2021/12/17 07:21:22;;;;;;;9.70;7.00;;;;;;;4.32;76.71;98657.06;4943982;28;20051;-78
2021/12/17 07:35:13;;;;;;;8.85;6.88;;;;;;;4.18;77.73;98650.16;4972739;28;20465;-76
2021/12/17 07:40:25;;;;;;;10.43;8.13;;;;;;;4.31;78.51;98650.25;4977772;28;20058;-79
2021/12/17 07:42:54;;;;;;;12.32;9.65;;;;;;;4.26;77.37;98647.94;4977504;28;20515;-77
2021/12/17 07:45:23;;;;;;;10.95;7.75;;;;;;;4.23;76.87;98644.69;4977560;28;20182;-78
2021/12/17 07:47:50;;;;;;;13.70;8.77;;;;;;;4.22;77.25;98648.19;4976963;28;20049;-78
2021/12/17 07:50:18;;;;;;;12.35;9.35;;;;;;;4.22;77.76;98645.59;4977984;28;20059;-78
2021/12/17 07:52:46;;;;;;;12.95;9.02;;;;;;;4.24;78.76;98651.50;4977281;28;20074;-79
2021/12/17 07:55:13;;;;;;;15.05;10.68;;;;;;;4.27;79.35;98648.75;4977202;28;20054;-78
2021/12/17 07:57:41;;;;;;;20.17;10.75;;;;;;;4.22;77.18;98648.19;4976583;28;20043;-78
2021/12/17 08:00:09;;;;;;;12.25;9.25;;;;;;;4.14;77.48;98640.91;4977612;28;20132;-81
2021/12/17 08:02:38;;;;;;;16.85;9.98;;;;;;;4.16;79.03;98638.25;4979225;28;20050;-79
2021/12/17 08:05:07;;;;;;;13.35;9.60;;;;;;;4.21;79.54;98639.63;4979249;28;20117;-82
2021/12/17 08:07:34;;;;;;;18.90;10.70;;;;;;;4.18;78.36;98637.22;4977225;28;20050;-77
2021/12/17 08:10:02;;;;;;;17.48;11.98;;;;;;;4.10;76.85;98653.16;4966566;28;20069;-76
2021/12/17 08:12:30;;;;;;;14.15;9.43;;;;;;;4.08;78.00;98641.28;4976857;28;20054;-77
2021/12/17 08:14:57;;;;;;;16.52;10.20;;;;;;;4.11;78.96;98647.09;4977198;28;20051;-77
2021/12/17 08:17:45;;;;;;;21.20;12.18;;;;;;;4.10;77.54;98645.41;4976515;28;20054;-78
2021/12/17 08:26:01;;;;;;;21.13;12.25;;;;;;;4.18;79.67;98639.00;4973770;28;20051;-78
2021/12/17 08:28:38;;;;;;;26.05;13.50;;;;;;;4.22;79.42;98637.84;4976317;28;20055;-77
2021/12/17 08:31:06;;;;;;;23.27;13.43;;;;;;;4.26;79.94;98631.59;4977220;28;20073;-79
2021/12/17 08:33:34;;;;;;;29.00;13.75;;;;;;;4.27;79.99;98628.91;4978604;28;20051;-80
2021/12/17 08:36:03;;;;;;;25.10;13.63;;;;;;;4.30;80.28;98638.22;4977873;28;20058;-81
2021/12/17 08:38:31;;;;;;;20.92;10.48;;;;;;;4.27;78.48;98636.66;4979520;28;20452;-80
2021/12/17 08:40:59;;;;;;;14.02;10.05;;;;;;;4.23;78.49;98642.94;4978566;28;20536;-77
2021/12/17 08:43:27;;;;;;;15.90;8.30;;;;;;;4.22;78.00;98645.59;4978605;28;20402;-77
2021/12/17 08:45:55;;;;;;;13.30;7.90;;;;;;;4.21;77.63;98644.78;4977603;28;20062;-80
2021/12/17 08:48:22;;;;;;;14.32;8.40;;;;;;;4.24;77.73;98636.00;4976964;28;20517;-77
2021/12/17 08:50:50;;;;;;;15.68;8.95;;;;;;;4.30;79.25;98633.06;4977633;28;20058;-78
2021/12/17 08:53:19;;;;;;;12.48;9.13;;;;;;;4.37;79.36;98623.19;4978122;28;20051;-76
2021/12/17 08:55:47;;;;;;;16.30;9.15;;;;;;;4.43;79.75;98618.47;4977619;28;20059;-78
2021/12/17 08:58:14;;;;;;;19.95;10.23;;;;;;;4.49;80.04;98633.63;4977693;28;20061;-79
2021/12/17 09:00:43;;;;;;;14.75;10.15;;;;;;;4.56;80.47;98628.09;4976517;28;20058;-80
2021/12/17 09:03:12;;;;;;;24.73;11.23;;;;;;;4.60;80.34;98630.38;4976620;28;20143;-77
2021/12/17 09:05:41;;;;;;;17.77;10.95;;;;;;;4.66;80.03;98629.19;4977734;28;20063;-79
2021/12/17 09:08:11;;;;;;;19.13;11.27;;;;;;;4.68;79.34;98629.91;4976859;28;20054;-78
2021/12/17 09:10:41;;;;;;;15.80;10.70;;;;;;;4.69;78.55;98628.97;4977964;28;20051;-80
2021/12/17 09:13:08;;;;;;;15.20;11.10;;;;;;;4.67;77.95;98625.66;4978044;28;20054;-77
2021/12/17 09:15:36;;;;;;;15.48;11.48;;;;;;;4.69;78.65;98631.56;4977021;28;20448;-78
2021/12/17 09:18:04;;;;;;;17.73;12.68;;;;;;;4.74;79.32;98639.84;4977227;28;20051;-77
2021/12/17 09:20:32;;;;;;;19.55;11.60;;;;;;;4.78;79.11;98635.34;4977600;28;20153;-78
2021/12/17 09:22:59;;;;;;;15.05;10.57;;;;;;;4.82;78.16;98639.41;4978035;28;20059;-78
2021/12/17 09:25:29;;;;;;;17.30;9.15;;;;;;;4.84;77.89;98638.38;4978164;28;20054;-77
2021/12/17 09:27:57;;;;;;;18.90;7.90;;;;;;;4.88;77.84;98646.78;4978231;28;20046;-77
2021/12/17 09:30:25;;;;;;;11.93;6.97;;;;;;;4.93;78.17;98648.13;4977405;28;20050;-81
2021/12/17 09:32:52;;;;;;;13.88;9.00;;;;;;;5.01;78.97;98649.41;4976469;28;20081;-77
2021/12/17 09:35:21;;;;;;;15.63;10.30;;;;;;;5.07;78.68;98654.19;4977040;28;20051;-79
2021/12/17 09:37:48;;;;;;;16.50;11.32;;;;;;;5.11;79.04;98653.09;4975832;28;20047;-77
2021/12/17 09:40:17;;;;;;;16.90;11.18;;;;;;;5.14;77.50;98655.50;4975686;28;20051;-77
2021/12/17 09:42:45;;;;;;;17.10;12.18;;;;;;;5.16;76.61;98653.66;4976099;28;20489;-78
2021/12/17 09:45:15;;;;;;;14.90;10.68;;;;;;;5.16;76.06;98656.22;4976328;28;20058;-77
2021/12/17 09:47:44;;;;;;;14.48;11.07;;;;;;;5.18;76.28;98661.28;4976305;28;20526;-77
2021/12/17 09:50:15;;;;;;;12.75;10.30;;;;;;;5.19;75.53;98673.31;4977430;28;20089;-77
2021/12/17 09:52:43;;;;;;;13.38;10.30;;;;;;;5.20;75.75;98675.78;4977056;28;20058;-77
2021/12/17 09:55:12;;;;;;;11.80;8.93;;;;;;;5.23;75.51;98675.59;4977242;28;20059;-78
2021/12/17 09:57:40;;;;;;;12.18;8.80;;;;;;;5.27;74.85;98674.50;4976065;28;20560;-77
2021/12/17 10:00:12;;;;;;;8.45;7.60;;;;;;;5.30;74.66;98663.94;4976373;28;20497;-78
2021/12/17 10:02:44;;;;;;;11.15;8.45;;;;;;;5.35;74.49;98663.63;4977927;28;20062;-78
2021/12/17 10:05:14;;;;;;;9.80;8.07;;;;;;;5.42;74.72;98661.47;4978675;28;20405;-79
2021/12/17 10:07:44;;;;;;;11.48;8.88;;;;;;;5.52;76.13;98655.63;4977940;28;20429;-78
2021/12/17 10:10:13;;;;;;;11.02;8.00;;;;;;;5.63;75.45;98659.28;4978284;28;20118;-79
2021/12/17 10:12:41;;;;;;;9.07;7.43;;;;;;;5.68;74.18;98670.16;4977591;28;20425;-78
2021/12/17 10:15:13;;;;;;;9.15;7.53;;;;;;;5.71;73.91;98655.25;4975603;28;20058;-78
2021/12/17 10:17:53;;;;;;;9.43;8.07;;;;;;;5.80;74.83;98658.19;4975868;28;20532;-78
2021/12/17 10:20:22;;;;;;;9.30;7.70;;;;;;;5.85;74.02;98656.09;4977303;28;20085;-78
2021/12/17 10:22:57;;;;;;;9.93;7.70;;;;;;;5.90;74.03;98644.53;4978007;28;20065;-77
2021/12/17 10:25:25;;;;;;;9.10;7.68;;;;;;;5.95;73.67;98649.44;4975766;28;20054;-78
2021/12/17 10:27:59;;;;;;;7.25;6.28;;;;;;;5.96;73.12;98654.47;4976285;28;20050;-78
2021/12/17 10:30:28;;;;;;;10.45;7.18;;;;;;;6.00;73.08;98662.06;4975984;28;20061;-79
2021/12/17 10:32:59;;;;;;;10.15;7.63;;;;;;;6.02;72.65;98653.25;4976040;28;20051;-77
2021/12/17 10:35:29;;;;;;;15.40;7.47;;;;;;;6.07;72.82;98658.94;4977002;28;20047;-78
2021/12/17 10:38:00;;;;;;;10.18;8.05;;;;;;;6.18;72.17;98664.25;4977580;28;20097;-78
2021/12/17 10:40:30;;;;;;;9.52;7.88;;;;;;;6.35;72.83;98659.69;4977286;28;20051;-77
2021/12/17 10:43:03;;;;;;;8.68;7.38;;;;;;;6.48;72.05;98654.50;4977349;28;20047;-79
2021/12/17 10:45:35;;;;;;;11.05;8.18;;;;;;;6.58;71.41;98648.59;4974800;28;20062;-78
2021/12/17 10:48:26;;;;;;;8.65;7.68;;;;;;;6.72;72.21;98647.63;4976223;28;20055;-77
2021/12/17 10:51:01;;;;;;;9.27;7.18;;;;;;;6.90;71.87;98652.44;4974897;28;20056;-80
2021/12/17 10:53:30;;;;;;;7.38;6.13;;;;;;;7.05;72.40;98651.38;4976552;28;20051;-78
2021/12/17 10:55:59;;;;;;;9.43;8.38;;;;;;;7.19;72.61;98651.22;4975866;28;20572;-78
2021/12/17 10:58:27;;;;;;;9.20;7.53;;;;;;;7.34;70.87;98646.66;4976241;28;20424;-76
2021/12/17 11:00:58;;;;;;;8.52;7.00;;;;;;;7.50;70.84;98640.38;4976062;28;20050;-79
2021/12/17 11:03:27;;;;;;;11.80;7.80;;;;;;;7.62;70.04;98629.91;4975863;28;20061;-77
2021/12/17 11:05:56;;;;;;;9.30;6.95;;;;;;;7.70;70.45;98628.53;4972055;28;20042;-77
2021/12/17 11:08:33;;;;;;;9.35;7.63;;;;;;;7.69;69.68;98627.69;4975745;28;20054;-77
2021/12/17 11:11:08;;;;;;;8.80;6.63;;;;;;;7.72;69.66;98634.41;4975038;28;20049;-78
2021/12/17 11:13:52;;;;;;;8.70;7.18;;;;;;;7.76;70.15;98623.72;4974710;28;20523;-79
2021/12/17 11:16:20;;;;;;;10.13;6.93;;;;;;;7.82;70.08;98638.81;4975825;28;20092;-77
2021/12/17 11:18:50;;;;;;;8.73;7.15;;;;;;;7.93;70.18;98632.00;4975973;28;20536;-78
2021/12/17 11:21:18;;;;;;;9.00;6.90;;;;;;;8.09;69.21;98640.31;4975851;28;20109;-78
2021/12/17 11:23:46;;;;;;;12.55;7.55;;;;;;;8.21;68.32;98641.97;4976585;28;20055;-78
2021/12/17 11:26:14;;;;;;;9.85;7.20;;;;;;;8.28;68.23;98644.94;4976336;28;20509;-77
2021/12/17 11:28:44;;;;;;;8.48;7.20;;;;;;;8.27;67.87;98638.09;4975683;28;20062;-78
2021/12/17 11:31:12;;;;;;;9.48;7.05;;;;;;;8.27;68.03;98632.06;4976884;28;20054;-78
2021/12/17 11:33:41;;;;;;;9.65;6.80;;;;;;;8.29;68.42;98624.94;4975358;28;20047;-76
2021/12/17 11:36:10;;;;;;;8.80;7.07;;;;;;;8.37;68.04;98633.00;4975225;28;20046;-78
2021/12/17 11:38:48;;;;;;;9.27;7.18;;;;;;;8.43;67.35;98638.59;4975774;28;20050;-78
2021/12/17 11:41:40;;;;;;;9.35;7.47;;;;;;;8.55;68.15;98630.78;4980294;28;20051;-79
2021/12/17 11:44:12;;;;;;;8.35;7.13;;;;;;;8.62;68.01;98622.41;4976469;28;20065;-75
2021/12/17 11:46:39;;;;;;;7.93;7.13;;;;;;;8.69;67.14;98606.31;4974586;28;20058;-76
2021/12/17 11:49:13;;;;;;;8.07;6.85;;;;;;;8.76;67.39;98607.47;4974868;28;20489;-76
2021/12/17 11:51:42;;;;;;;7.80;6.97;;;;;;;8.86;67.08;98608.41;4973877;28;20051;-74
2021/12/17 11:54:12;;;;;;;8.25;7.40;;;;;;;9.00;68.65;98615.94;4974112;28;20054;-75
2021/12/17 11:56:45;;;;;;;8.73;7.65;;;;;;;9.10;66.35;98602.22;4975337;28;20665;-79
2021/12/17 11:59:35;;;;;;;8.07;6.85;;;;;;;9.21;65.68;98612.59;4977402;28;20182;-75
2021/12/17 12:02:05;;;;;;;9.82;7.40;;;;;;;9.32;65.30;98612.53;4977441;28;20057;-78
2021/12/17 12:04:52;;;;;;;8.10;6.95;;;;;;;9.41;64.07;98614.38;4976740;28;20055;-77
2021/12/17 12:07:33;;;;;;;9.40;7.15;;;;;;;9.51;63.36;98605.81;4976051;28;20061;-75
2021/12/17 12:10:08;;;;;;;7.68;6.57;;;;;;;9.86;63.01;98602.91;4976217;28;20489;-75
2021/12/17 12:12:56;;;;;;;8.27;7.38;;;;;;;11.16;60.23;98603.13;4976619;28;20332;-77
2021/12/17 12:15:41;;;;;;;7.55;6.50;;;;;;;12.81;54.79;98599.31;4976770;28;20076;-75
2021/12/17 12:18:15;;;;;;;8.45;6.97;;;;;;;13.78;51.41;98591.56;4976455;28;20059;-77
2021/12/17 12:20:58;;;;;;;7.80;6.68;;;;;;;13.99;50.19;98599.09;4977155;28;20535;-77
2021/12/17 12:23:43;;;;;;;8.02;7.22;;;;;;;14.35;49.93;98598.97;4977844;28;20129;-75
2021/12/17 12:26:17;;;;;;;6.82;6.13;;;;;;;15.13;47.61;98597.13;4977552;28;20055;-74
2021/12/17 12:29:03;;;;;;;8.82;6.88;;;;;;;14.74;47.51;98592.44;4977549;28;20050;-75
2021/12/17 12:32:22;;;;;;;7.55;6.32;;;;;;;13.63;49.97;98587.03;4977927;28;20039;-74
2021/12/17 12:34:53;;;;;;;9.50;5.88;;;;;;;12.78;52.87;98582.13;4972114;28;20047;-76
2021/12/17 12:37:27;;;;;;;9.02;7.07;;;;;;;12.18;56.45;98579.09;4977184;28;20066;-78
2021/12/17 12:40:16;;;;;;;6.35;5.72;;;;;;;11.65;54.56;98568.16;4976754;28;20051;-76
2021/12/17 12:42:56;;;;;;;7.32;6.13;;;;;;;11.25;57.00;98576.19;4976346;28;20129;-79
2021/12/17 12:45:25;;;;;;;6.07;5.40;;;;;;;10.97;57.67;98590.88;4976125;28;20051;-75
2021/12/17 12:47:58;;;;;;;7.30;5.38;;;;;;;10.74;58.38;98587.69;4975530;28;20088;-75
2021/12/17 12:50:32;;;;;;;6.53;5.68;;;;;;;10.56;58.46;98590.09;4975417;28;20413;-76
2021/12/17 12:53:11;;;;;;;9.82;5.65;;;;;;;10.43;59.31;98582.47;4975843;28;20054;-77
2021/12/17 12:55:44;;;;;;;6.55;5.60;;;;;;;10.33;59.67;98599.91;4975701;28;20054;-77
2021/12/17 12:58:13;;;;;;;7.82;6.28;;;;;;;10.26;59.75;98589.94;4975818;28;20055;-75
2021/12/17 13:00:46;;;;;;;9.73;6.80;;;;;;;10.19;60.99;98588.84;4975028;28;20054;-75
2021/12/17 13:03:14;;;;;;;;;;;;;;;10.16;62.62;98583.84;4975904;28;20054;-76
2021/12/17 13:05:43;;;;;;;9.35;6.43;;;;;;;10.08;60.61;98586.31;4974919;28;20013;-77
2021/12/17 13:08:14;;;;;;;10.95;6.45;;;;;;;10.00;60.97;98586.13;4975121;28;20089;-77
2021/12/17 13:10:46;;;;;;;16.17;6.35;;;;;;;9.97;60.72;98591.56;4975007;28;20431;-77
2021/12/17 13:13:18;;;;;;;27.65;6.68;;;;;;;9.88;60.82;98586.19;4977825;28;20116;-76
2021/12/17 13:15:50;;;;;;;;;;;;;;;9.84;61.27;98582.19;4978257;28;20057;-75
2021/12/17 13:21:31;;;;;;;14.10;5.82;;;;;;;9.72;61.51;98570.19;4975998;28;20063;-77
2021/12/17 13:24:11;;;;;;;27.42;7.22;;;;;;;9.61;61.81;98578.06;4975501;28;20062;-76
2021/12/17 13:26:43;;;;;;;7.85;6.15;;;;;;;9.54;62.10;98574.31;4975126;28;20054;-78
2021/12/17 13:29:13;;;;;;;7.68;5.82;;;;;;;9.48;62.10;98566.03;4976283;28;20125;-78
2021/12/17 13:31:51;;;;;;;8.93;6.35;;;;;;;9.45;62.87;98579.31;4976917;28;20051;-78
2021/12/17 13:34:23;;;;;;;20.38;7.10;;;;;;;9.49;62.49;98569.50;4977976;28;20062;-79
2021/12/17 13:36:54;;;;;;;15.90;6.35;;;;;;;9.52;62.04;98590.06;4977561;28;20055;-79
2021/12/17 13:39:24;;;;;;;7.55;5.88;;;;;;;9.52;63.59;98584.03;4977253;28;20057;-78
2021/12/17 13:41:52;;;;;;;7.40;5.32;;;;;;;9.46;62.41;98575.75;4977084;28;20050;-78
2021/12/17 13:44:35;;;;;;;6.47;5.38;;;;;;;9.42;62.59;98582.19;4976649;28;20055;-78
2021/12/17 13:47:11;;;;;;;7.30;5.47;;;;;;;9.35;62.36;98575.81;4975841;28;20520;-78
2021/12/17 13:49:40;;;;;;;7.68;5.90;;;;;;;9.26;62.89;98566.16;4977941;28;20053;-78
2021/12/17 13:52:09;;;;;;;5.95;5.35;;;;;;;9.16;63.08;98568.69;4978166;28;20061;-77
2021/12/17 13:54:37;;;;;;;7.15;5.95;;;;;;;9.04;63.58;98575.69;4978683;28;20051;-79
2021/12/17 13:57:11;;;;;;;11.55;7.13;;;;;;;8.93;62.96;98578.34;4978128;28;20055;-78
2021/12/17 13:59:38;;;;;;;8.20;6.60;;;;;;;8.79;63.64;98586.41;4978434;28;20046;-76
2021/12/17 14:02:13;;;;;;;8.10;7.15;;;;;;;8.66;63.85;98607.38;4977506;28;20062;-76
2021/12/17 14:04:41;;;;;;;8.95;8.05;;;;;;;8.51;64.30;98622.41;4975525;28;20104;-77
2021/12/17 14:07:09;;;;;;;9.98;8.55;;;;;;;8.36;64.79;98637.38;4976282;28;20055;-78
2021/12/17 14:09:38;;;;;;;9.05;6.75;;;;;;;8.25;65.02;98635.59;4977541;28;20059;-78
2021/12/17 14:12:12;;;;;;;15.18;7.68;;;;;;;8.13;65.43;98625.28;4978523;28;20497;-79